createdAt,value
2018-07-10T00:03:31.734Z,66.80
2018-07-10T00:06:15.808Z,66.50
2018-07-10T00:09:11.537Z,66.80
2018-07-10T00:11:51.497Z,66.80
2018-07-10T00:14:26.929Z,67.00
2018-07-10T00:19:35.808Z,67.30
2018-07-10T00:22:12.226Z,67.10
2018-07-10T00:24:41.328Z,66.90
2018-07-10T00:41:43.380Z,67.70
2018-07-10T00:44:15.782Z,68.00
2018-07-10T00:46:49.915Z,68.30
2018-07-10T00:52:38.157Z,67.80
2018-07-10T01:23:21.274Z,67.40
2018-07-10T01:28:36.033Z,67.80
2018-07-10T01:31:09.670Z,68.10
2018-07-10T01:33:42.355Z,67.80
2018-07-10T01:36:14.673Z,67.80
2018-07-10T01:38:44.858Z,67.50
2018-07-10T01:41:16.466Z,67.70
2018-07-10T01:43:45.951Z,67.70
2018-07-10T01:46:17.343Z,67.70
2018-07-10T01:48:49.697Z,67.50
2018-07-10T01:51:19.085Z,67.80
2018-07-10T01:53:51.581Z,67.50
2018-07-10T01:56:21.199Z,67.50
2018-07-10T02:15:55.282Z,67.20
2018-07-10T02:18:27.964Z,66.80
2018-07-10T02:21:01.130Z,66.70
2018-07-10T02:40:36.752Z,66.50
2018-07-10T02:43:07.387Z,66.40
2018-07-10T02:45:36.756Z,66.30
2018-07-10T02:48:06.636Z,66.60
2018-07-10T02:50:37.180Z,66.40
2018-07-10T02:53:07.931Z,66.70
2018-07-10T02:55:36.802Z,66.80
2018-07-10T02:58:07.008Z,66.70
2018-07-10T03:00:36.099Z,66.70
2018-07-10T03:03:06.673Z,66.60
2018-07-10T03:05:38.468Z,66.70
2018-07-10T03:08:08.121Z,66.80
2018-07-10T03:10:37.500Z,67.00
2018-07-10T03:13:14.010Z,66.80
2018-07-10T03:15:44.103Z,67.00
2018-07-10T03:18:15.680Z,66.90
2018-07-10T03:20:45.213Z,67.10
2018-07-10T03:23:15.071Z,67.50
2018-07-10T03:25:44.490Z,67.10
2018-07-10T03:28:14.117Z,67.20
2018-07-10T03:30:42.998Z,67.30
2018-07-10T03:33:11.722Z,67.10
2018-07-10T03:35:41.899Z,67.10
2018-07-10T03:38:10.408Z,67.30
2018-07-10T03:40:39.128Z,67.30
2018-07-10T03:43:07.884Z,67.20
2018-07-10T03:45:36.697Z,67.20
2018-07-10T03:48:05.273Z,67.50
2018-07-10T03:50:33.893Z,67.30
2018-07-10T04:10:05.221Z,67.20
2018-07-10T04:12:37.459Z,67.20
2018-07-10T04:15:06.622Z,67.30
2018-07-10T04:18:07.434Z,67.60
2018-07-10T04:20:59.812Z,67.70
2018-07-10T04:23:34.886Z,68.00
2018-07-10T04:26:06.243Z,67.70
2018-07-10T04:28:36.053Z,67.60
2018-07-10T04:31:14.582Z,67.60
2018-07-10T04:33:45.851Z,67.60
2018-07-10T04:36:15.261Z,67.60
2018-07-10T04:38:44.940Z,67.50
2018-07-10T04:41:19.758Z,67.50
2018-07-10T04:43:54.464Z,67.50
2018-07-10T04:46:27.608Z,67.60
2018-07-10T04:49:03.927Z,67.50
2018-07-10T05:08:37.051Z,67.90
2018-07-10T05:11:06.319Z,68.20
2018-07-10T05:13:36.399Z,67.90
2018-07-10T05:16:05.880Z,67.80
2018-07-10T05:18:36.005Z,68.60
2018-07-10T05:21:11.786Z,67.80
2018-07-10T05:23:40.812Z,67.90
2018-07-10T05:29:00.779Z,68.00
2018-07-10T05:31:31.389Z,67.80
2018-07-10T05:34:00.281Z,67.80
2018-07-10T05:36:28.975Z,68.50
2018-07-10T05:39:04.725Z,67.70
2018-07-10T05:41:36.144Z,67.70
2018-07-10T05:44:04.754Z,67.60
2018-07-10T05:46:33.493Z,67.50
2018-07-10T06:06:17.951Z,66.90
2018-07-10T06:08:46.922Z,66.80
2018-07-10T06:11:15.563Z,66.80
2018-07-10T06:13:45.938Z,66.90
2018-07-10T06:16:15.104Z,66.70
2018-07-10T06:21:48.105Z,66.60
2018-07-10T06:24:24.309Z,66.40
2018-07-10T06:26:59.188Z,66.30
2018-07-10T06:29:33.978Z,66.20
2018-07-10T06:32:03.147Z,66.20
2018-07-10T06:34:35.232Z,66.00
2018-07-10T06:37:07.026Z,66.10
2018-07-10T06:39:35.643Z,65.80
2018-07-10T06:42:06.774Z,65.40
2018-07-10T06:44:38.240Z,65.20
2018-07-10T06:47:26.949Z,65.20
2018-07-10T06:49:56.047Z,65.20
2018-07-10T06:52:24.626Z,65.00
2018-07-10T06:55:11.855Z,64.90
2018-07-10T06:57:51.339Z,65.00
2018-07-10T07:00:20.107Z,65.10
2018-07-10T07:14:28.111Z,65.10
2018-07-10T07:34:01.776Z,64.20
2018-07-10T07:36:30.574Z,64.00
2018-07-10T07:59:17.440Z,64.30
2018-07-10T08:04:53.155Z,64.40
2018-07-10T08:07:22.643Z,64.40
2018-07-10T08:09:54.944Z,64.60
2018-07-10T08:12:24.908Z,64.60
2018-07-10T08:14:54.566Z,64.80
2018-07-10T08:17:23.834Z,64.80
2018-07-10T08:19:53.553Z,64.70
2018-07-10T08:22:22.243Z,64.80
2018-07-10T08:24:55.784Z,64.50
2018-07-10T08:27:25.091Z,64.60
2018-07-10T08:29:54.147Z,64.40
2018-07-10T08:32:27.672Z,64.30
2018-07-10T08:34:56.392Z,64.10
2018-07-10T08:37:24.955Z,64.20
2018-07-10T08:39:53.684Z,64.10
2018-07-10T08:42:22.307Z,64.30
2018-07-10T08:44:51.269Z,64.30
2018-07-10T08:47:20.127Z,64.10
2018-07-10T08:49:48.700Z,64.10
2018-07-10T08:52:17.285Z,64.00
2018-07-10T08:54:45.752Z,63.90
2018-07-10T08:57:14.400Z,63.60
2018-07-10T08:59:42.928Z,63.70
2018-07-10T09:02:11.279Z,63.90
2018-07-10T09:04:39.803Z,63.90
2018-07-10T09:07:08.480Z,63.90
2018-07-10T09:09:37.723Z,63.70
2018-07-10T09:12:06.408Z,63.80
2018-07-10T09:14:34.859Z,63.90
2018-07-10T09:17:03.400Z,63.90
2018-07-10T09:19:32.573Z,63.70
2018-07-10T09:22:07.728Z,63.80
2018-07-10T09:24:43.713Z,63.60
2018-07-10T09:27:12.462Z,63.70
2018-07-10T09:29:41.111Z,63.90
2018-07-10T09:32:10.039Z,63.80
2018-07-10T09:34:38.526Z,63.90
2018-07-10T09:37:11.467Z,63.90
2018-07-10T09:39:40.484Z,63.90
2018-07-10T09:42:09.041Z,63.70
2018-07-10T09:44:37.910Z,63.80
2018-07-10T09:47:06.508Z,63.90
2018-07-10T10:06:37.384Z,63.60
2018-07-10T10:09:06.208Z,63.40
2018-07-10T10:11:34.920Z,63.50
2018-07-10T10:14:03.481Z,63.30
2018-07-10T10:16:32.617Z,63.50
2018-07-10T10:19:01.112Z,63.50
2018-07-10T10:21:30.244Z,63.40
2018-07-10T10:23:59.459Z,63.50
2018-07-10T10:26:28.343Z,63.40
2018-07-10T10:28:57.022Z,63.30
2018-07-10T10:31:25.524Z,63.40
2018-07-10T10:33:54.096Z,63.40
2018-07-10T10:36:22.607Z,63.40
2018-07-10T10:38:51.189Z,63.40
2018-07-10T10:41:19.897Z,63.80
2018-07-10T10:43:48.988Z,63.80
2018-07-10T10:46:20.845Z,63.80
2018-07-10T10:48:49.484Z,63.60
2018-07-10T10:51:19.957Z,63.90
2018-07-10T10:53:48.514Z,63.90
2018-07-10T11:13:21.181Z,64.00
2018-07-10T11:15:50.319Z,64.00
2018-07-10T11:18:30.517Z,64.50
2018-07-10T11:21:09.112Z,64.70
2018-07-10T11:32:20.620Z,64.30
2018-07-10T11:34:49.324Z,64.10
2018-07-10T11:37:17.731Z,64.10
2018-07-10T11:39:46.121Z,64.20
2018-07-10T11:42:14.572Z,64.00
2018-07-10T11:44:49.367Z,64.00
2018-07-10T11:47:18.292Z,63.60
2018-07-10T11:49:47.004Z,63.70
2018-07-10T11:52:15.698Z,63.70
2018-07-10T11:54:44.283Z,63.80
2018-07-10T11:57:15.180Z,63.60
2018-07-10T11:59:43.728Z,64.10
2018-07-10T12:02:12.640Z,63.30
2018-07-10T12:16:14.747Z,63.10
2018-07-10T12:19:00.580Z,63.10
2018-07-10T13:19:34.566Z,65.20
2018-07-10T13:39:22.788Z,66.50
2018-07-10T13:41:51.497Z,67.20
2018-07-10T13:44:20.309Z,66.90
2018-07-10T13:46:48.910Z,67.00
2018-07-10T13:49:17.580Z,67.20
2018-07-10T13:51:46.193Z,67.10
2018-07-10T13:54:14.820Z,67.40
2018-07-10T13:56:43.263Z,67.70
2018-07-10T13:59:21.972Z,67.30
2018-07-10T14:01:51.732Z,67.00
2018-07-10T14:04:20.304Z,67.30
2018-07-10T14:23:52.690Z,66.80
2018-07-10T14:26:21.252Z,67.10
2018-07-10T14:28:50.574Z,66.60
2018-07-10T14:31:19.220Z,66.70
2018-07-10T14:50:53.791Z,67.30
2018-07-10T14:59:16.025Z,67.10
2018-07-10T15:18:53.592Z,67.60
2018-07-10T15:21:24.028Z,67.80
2018-07-10T15:23:52.922Z,67.80
2018-07-10T15:26:24.597Z,67.90
2018-07-10T15:28:53.786Z,67.80
2018-07-10T15:31:22.876Z,67.80
2018-07-10T15:33:52.445Z,67.80
2018-07-10T15:36:22.103Z,68.20
2018-07-10T15:38:53.716Z,68.30
2018-07-10T15:41:24.976Z,68.40
2018-07-10T15:43:56.611Z,68.50
2018-07-10T15:46:34.632Z,68.60
2018-07-10T15:49:03.818Z,68.90
2018-07-10T15:51:33.455Z,69.00
2018-07-10T15:54:03.949Z,69.10
2018-07-10T15:56:32.886Z,68.80
2018-07-10T15:59:17.208Z,68.80
2018-07-10T16:01:46.054Z,68.80
2018-07-10T16:04:17.406Z,69.10
2018-07-10T16:06:47.925Z,69.00
2018-07-10T16:09:19.696Z,69.20
2018-07-10T16:12:01.609Z,69.20
2018-07-10T16:14:30.580Z,68.90
2018-07-10T16:17:01.259Z,69.10
2018-07-10T16:19:42.050Z,69.20
2018-07-10T16:22:15.785Z,69.70
2018-07-10T16:24:49.147Z,69.40
2018-07-10T16:27:27.615Z,68.80
2018-07-10T16:30:01.026Z,68.40
2018-07-10T16:32:32.911Z,68.00
2018-07-10T16:35:03.398Z,67.60
2018-07-10T16:37:33.114Z,67.50
2018-07-10T16:40:02.885Z,67.40
2018-07-10T16:42:37.528Z,67.20
2018-07-10T16:45:06.782Z,67.50
2018-07-10T16:47:42.825Z,68.00
2018-07-10T16:50:12.032Z,68.00
2018-07-10T16:52:55.239Z,68.60
2018-07-10T16:55:24.588Z,68.70
2018-07-10T16:57:53.758Z,69.00
2018-07-10T17:00:23.748Z,69.10
2018-07-10T17:20:01.812Z,70.60
2018-07-10T17:22:31.669Z,71.20
2018-07-10T17:25:00.500Z,71.10
2018-07-10T17:27:32.180Z,72.20
2018-07-10T17:30:01.615Z,73.00
2018-07-10T17:32:30.226Z,72.00
2018-07-10T17:34:59.036Z,71.70
2018-07-10T17:37:27.738Z,71.90
2018-07-10T17:39:59.644Z,71.80
2018-07-10T17:42:28.300Z,71.90
2018-07-10T17:44:56.843Z,72.10
2018-07-10T17:47:25.728Z,72.30
2018-07-10T17:49:54.670Z,72.40
2018-07-10T17:52:23.255Z,72.40
2018-07-10T17:54:51.844Z,72.60
2018-07-10T17:57:20.481Z,72.40
2018-07-10T17:59:49.405Z,73.30
2018-07-10T18:02:17.999Z,72.60
2018-07-10T18:04:47.517Z,72.70
2018-07-10T18:07:16.012Z,73.00
2018-07-10T18:09:44.609Z,73.00
2018-07-10T18:12:13.205Z,73.30
2018-07-10T18:14:41.692Z,73.10
2018-07-10T18:17:10.362Z,73.00
2018-07-10T18:19:38.924Z,73.10
2018-07-10T18:22:07.483Z,73.20
2018-07-10T18:24:36.099Z,73.30
2018-07-10T18:27:04.623Z,73.50
2018-07-10T18:29:33.870Z,73.60
2018-07-10T18:32:02.676Z,73.60
2018-07-10T18:34:31.167Z,73.60
2018-07-10T18:36:59.670Z,73.60
2018-07-10T18:39:28.168Z,73.70
2018-07-10T18:41:56.768Z,73.80
2018-07-10T18:44:25.415Z,73.70
2018-07-10T18:46:58.918Z,73.80
2018-07-10T18:49:40.504Z,73.60
2018-07-10T18:52:09.163Z,73.80
2018-07-10T18:54:38.763Z,73.80
2018-07-10T18:59:15.865Z,74.00
2018-07-10T19:02:01.068Z,74.00
2018-07-10T19:04:42.191Z,74.10
2018-07-10T19:07:10.996Z,74.20
2018-07-10T19:09:39.730Z,74.10
2018-07-10T19:12:11.331Z,74.30
2018-07-10T19:14:40.720Z,74.30
2018-07-10T19:17:13.284Z,74.10
2018-07-10T19:19:46.939Z,74.50
2018-07-10T19:22:17.059Z,74.30
2018-07-10T19:24:46.251Z,74.30
2018-07-10T19:27:29.871Z,74.40
2018-07-10T19:30:04.953Z,74.50
2018-07-10T19:32:34.032Z,74.70
2018-07-10T19:35:03.111Z,74.70
2018-07-10T19:37:33.309Z,74.70
2018-07-10T19:40:02.009Z,74.70
2018-07-10T19:42:32.069Z,74.90
2018-07-10T19:45:01.655Z,75.00
2018-07-10T19:47:30.970Z,75.00
2018-07-10T19:50:08.108Z,74.90
2018-07-10T19:52:36.780Z,74.80
2018-07-10T19:55:05.345Z,74.90
2018-07-10T19:58:40.329Z,74.90
2018-07-10T20:01:16.441Z,75.10
2018-07-10T20:08:16.582Z,75.30
2018-07-10T20:10:57.056Z,75.40
2018-07-10T20:13:38.821Z,75.50
2018-07-10T20:16:20.024Z,75.50
2018-07-10T20:24:18.168Z,75.60
2018-07-10T20:28:02.987Z,75.70
2018-07-10T20:30:41.567Z,75.70
2018-07-10T20:33:18.556Z,75.70
2018-07-10T20:35:50.460Z,75.90
2018-07-10T20:38:21.504Z,75.90
2018-07-10T20:40:59.619Z,75.70
2018-07-10T20:43:29.950Z,75.60
2018-07-10T20:45:59.403Z,75.80
2018-07-10T20:49:13.139Z,75.80
2018-07-10T20:51:52.236Z,75.90
2018-07-10T20:54:33.627Z,76.00
2018-07-10T20:57:17.382Z,75.90
2018-07-10T21:17:03.277Z,76.20
2018-07-10T21:37:00.835Z,76.50
2018-07-10T21:39:52.308Z,76.60
2018-07-10T21:42:48.821Z,76.70
2018-07-10T21:45:29.040Z,76.40
2018-07-10T21:48:10.229Z,76.50
2018-07-10T21:51:00.348Z,76.50
2018-07-10T21:53:29.290Z,76.50
2018-07-10T21:55:58.365Z,76.40
2018-07-10T21:58:27.581Z,76.30
2018-07-10T22:02:14.376Z,76.30
2018-07-10T22:04:44.272Z,76.30
2018-07-10T22:07:16.280Z,76.50
2018-07-10T22:09:45.298Z,76.50
2018-07-10T22:12:15.993Z,76.40
2018-07-10T22:14:44.827Z,76.40
2018-07-10T22:17:21.495Z,76.50
2018-07-10T22:19:52.916Z,76.50
2018-07-10T22:22:25.647Z,76.50
2018-07-10T22:42:03.434Z,76.60
2018-07-10T22:44:35.306Z,76.70
2018-07-10T22:47:04.477Z,76.60
2018-07-10T22:49:33.368Z,76.50
2018-07-10T22:52:04.181Z,76.50
2018-07-10T22:54:35.477Z,76.40
2018-07-10T23:14:09.071Z,76.50
2018-07-10T23:16:38.538Z,76.50
2018-07-10T23:19:07.434Z,76.60
2018-07-10T23:21:37.615Z,76.90
2018-07-10T23:24:06.827Z,77.20
2018-07-10T23:26:35.449Z,77.40
2018-07-10T23:29:05.258Z,77.40
2018-07-10T23:31:34.278Z,77.50
2018-07-10T23:34:19.439Z,77.40
2018-07-10T23:36:56.523Z,77.30
2018-07-10T23:39:47.392Z,77.70
2018-07-10T23:42:33.150Z,77.90
2018-07-10T23:45:07.521Z,78.10
2018-07-10T23:47:36.717Z,78.20
2018-07-10T23:50:15.157Z,78.20
2018-07-10T23:53:05.358Z,78.60
2018-07-10T23:55:35.999Z,78.40
2018-07-10T23:58:06.299Z,78.20
